Hornbay — ELML7 — position and weather

sailwx.info

Track history (hours):
 
Tides and Currents Weather Stations Pressure Air Temp Water Temp Dewpoint Dewpoint Depression Visibility Wind Speed Wind Dir Waves Ship Positions

Hornbay

Last reported at 2017-Nov-23 05:00 UTC. Time now 2017-Nov-23 05:23 UTC.
Position N 39°01' W 075°09'.

Length 153 m; draft 8.2 m.

Type: Ship. MMSI: 636009174.

Date/timePositionNaut miles runAvg speedWind from/ knotsBaromVisibWave heightAir tempDewpointWater temp
2017-Nov-23 05:00N 39°01' W 075°09'816.1
2017-Nov-23 04:30N 39°08' W 075°14'815.6
2017-Nov-23 04:00N 39°14' W 075°19'816.1
2017-Nov-23 03:30N 39°21' W 075°26'816.4
2017-Nov-23 03:00N 39°27' W 075°33'815.7
2017-Nov-23 02:30N 39°35' W 075°33'714.5
2017-Nov-23 02:01N 39°42' W 075°31'713.5
2017-Nov-23 01:30N 39°47' W 075°27'611.6
2017-Nov-23 01:01N 39°51' W 075°20'510.5
2017-Nov-23 00:30N 39°52' W 075°14'510.2
2017-Nov-23 00:00N 39°54' W 075°08'0 0.8
2017-Nov-22 23:29N 39°54' W 075°08'0 0.0
2017-Nov-22 22:59N 39°54' W 075°08'0 0.0
2017-Nov-22 22:29N 39°54' W 075°08'0 0.0
2017-Nov-22 21:59N 39°54' W 075°08'0 0.0
2017-Nov-22 21:29N 39°54' W 075°08'0 0.0
2017-Nov-22 20:59N 39°54' W 075°08'0 0.0
2017-Nov-22 20:29N 39°54' W 075°08'0 0.0
2017-Nov-22 19:59N 39°54' W 075°08'0 0.0
2017-Nov-22 19:29N 39°54' W 075°08'  
2017-Nov-19 04:42N 26°33' W 079°44'520.7
2017-Nov-19 04:27N 26°28' W 079°45'920.8
2017-Nov-19 04:00N 26°19' W 079°46'1020.8
2017-Nov-19 03:30N 26°09' W 079°48'1020.5
2017-Nov-19 03:00N 25°59' W 079°49'1020.3
2017-Nov-19 02:30N 25°48' W 079°50'1020.3
2017-Nov-19 02:01N 25°39' W 079°53'1020.4
2017-Nov-19 01:30N 25°29' W 079°55'  
2017-Nov-13 22:07N 27°37' W 082°40'215.2
2017-Nov-13 21:58N 27°38' W 082°37'  
Track history (hours):
 
Tides and Currents Weather Stations Pressure Air Temp Water Temp Dewpoint Dewpoint Depression Visibility Wind Speed Wind Dir Waves Ship Positions

Hornbay

Last reported at 2017-Nov-23 05:00 UTC. Time now 2017-Nov-23 05:23 UTC.
Position N 39°01' W 075°09'.

Length 153 m; draft 8.2 m.

Type: Ship. MMSI: 636009174.

Date/timePositionNaut miles runAvg speedWind from/ knotsBaromVisibWave heightAir tempDewpointWater temp
2017-Nov-23 05:00N 39°01' W 075°09'816.1
2017-Nov-23 04:30N 39°08' W 075°14'815.6
2017-Nov-23 04:00N 39°14' W 075°19'816.1
2017-Nov-23 03:30N 39°21' W 075°26'816.4
2017-Nov-23 03:00N 39°27' W 075°33'815.7
2017-Nov-23 02:30N 39°35' W 075°33'714.5
2017-Nov-23 02:01N 39°42' W 075°31'713.5
2017-Nov-23 01:30N 39°47' W 075°27'611.6
2017-Nov-23 01:01N 39°51' W 075°20'510.5
2017-Nov-23 00:30N 39°52' W 075°14'510.2
2017-Nov-23 00:00N 39°54' W 075°08'0 0.8
2017-Nov-22 23:29N 39°54' W 075°08'0 0.0
2017-Nov-22 22:59N 39°54' W 075°08'0 0.0
2017-Nov-22 22:29N 39°54' W 075°08'0 0.0
2017-Nov-22 21:59N 39°54' W 075°08'0 0.0
2017-Nov-22 21:29N 39°54' W 075°08'0 0.0
2017-Nov-22 20:59N 39°54' W 075°08'0 0.0
2017-Nov-22 20:29N 39°54' W 075°08'0 0.0
2017-Nov-22 19:59N 39°54' W 075°08'0 0.0
2017-Nov-22 19:29N 39°54' W 075°08'  
2017-Nov-19 04:42N 26°33' W 079°44'520.7
2017-Nov-19 04:27N 26°28' W 079°45'920.8
2017-Nov-19 04:00N 26°19' W 079°46'1020.8
2017-Nov-19 03:30N 26°09' W 079°48'1020.5
2017-Nov-19 03:00N 25°59' W 079°49'1020.3
2017-Nov-19 02:30N 25°48' W 079°50'1020.3
2017-Nov-19 02:01N 25°39' W 079°53'1020.4
2017-Nov-19 01:30N 25°29' W 079°55'  
2017-Nov-13 22:07N 27°37' W 082°40'215.2
2017-Nov-13 21:58N 27°38' W 082°37'  

Dump ship's entire track history